Time;durP1;ratioP1;P1;durP2;ratioP2;P2;SDS_P1;SDS_P2;PMS_P1;PMS_P2;Temp;Humidity;BMP_temperature;BMP_pressure;BME280_temperature;BME280_humidity;BME280_pressure;Samples;Min_cycle;Max_cycle;Signal;HPM_P1;HPM_P2
2022/07/17 04:37:58;;;;;;;;;;;25.40;44.50;;;;;;5983241;23;19940;-89
2022/07/17 04:40:26;;;;;;;;;;;25.40;44.50;;;;;;4995323;28;20012;-89
2022/07/17 04:42:53;;;;;;;;;;;25.40;44.50;;;;;;4995654;28;19957;-89
2022/07/17 04:45:19;;;;;;;;;;;25.40;44.60;;;;;;4995142;28;19925;-89
2022/07/17 04:47:46;;;;;;;;;;;25.40;44.60;;;;;;4995142;28;20353;-89
2022/07/17 04:50:13;;;;;;;;;;;25.40;44.60;;;;;;4994385;28;19965;-89
2022/07/17 04:52:39;;;;;;;;;;;25.40;44.60;;;;;;4995521;28;19926;-88
2022/07/17 04:55:06;;;;;;;;;;;25.40;44.70;;;;;;4995000;28;20348;-88
2022/07/17 04:57:34;;;;;;;;;;;25.40;44.70;;;;;;4995042;28;20009;-88
2022/07/17 05:00:01;;;;;;;;;;;25.40;44.80;;;;;;4995036;28;20439;-88
2022/07/17 05:02:28;;;;;;;;;;;25.40;44.80;;;;;;4995059;28;19969;-88
2022/07/17 05:04:54;;;;;;;;;;;25.40;44.80;;;;;;4994855;28;20016;-88
2022/07/17 05:07:21;;;;;;;;;;;25.40;44.90;;;;;;4994850;28;20017;-88
2022/07/17 05:09:48;;;;;;;;;;;25.40;44.90;;;;;;4994671;28;20016;-89
2022/07/17 05:12:14;;;;;;;;;;;25.40;44.90;;;;;;4994605;28;20448;-89
2022/07/17 05:14:42;;;;;;;;;;;25.40;44.90;;;;;;4994855;28;20036;-88
2022/07/17 05:17:09;;;;;;;;;;;25.40;45.00;;;;;;4994745;28;20008;-88
2022/07/17 05:19:36;;;;;;;;;;;25.40;45.00;;;;;;4994780;28;20357;-88
2022/07/17 05:22:03;;;;;;;;;;;25.40;45.10;;;;;;4994838;28;19930;-89
2022/07/17 05:24:29;;;;;;;;;;;25.40;45.10;;;;;;4994745;28;20016;-88
2022/07/17 05:26:56;;;;;;;;;;;25.40;45.10;;;;;;4994421;28;20471;-87
2022/07/17 05:29:23;;;;;;;;;;;25.40;45.20;;;;;;4996510;28;20412;-80
2022/07/17 05:31:51;;;;;;;;;;;25.40;45.20;;;;;;4996943;28;19965;-80
2022/07/17 05:34:18;;;;;;;;;;;25.40;45.20;;;;;;4995241;28;20016;-80
2022/07/17 05:36:45;;;;;;;;;;;25.40;45.20;;;;;;4995704;28;20016;-80
2022/07/17 05:39:12;;;;;;;;;;;25.40;45.30;;;;;;4995186;28;20369;-80
2022/07/17 05:41:39;;;;;;;;;;;25.40;45.30;;;;;;4995587;28;19969;-80
2022/07/17 05:44:06;;;;;;;;;;;25.40;45.30;;;;;;4995691;28;20334;-80
2022/07/17 05:46:32;;;;;;;;;;;25.40;45.30;;;;;;4996580;28;20016;-80
2022/07/17 05:49:00;;;;;;;;;;;25.40;45.30;;;;;;4996998;28;19932;-80
2022/07/17 05:51:27;;;;;;;;;;;25.40;45.30;;;;;;4997460;28;19933;-80
2022/07/17 05:53:54;;;;;;;;;;;25.40;45.40;;;;;;4996901;28;20008;-80
2022/07/17 05:56:20;;;;;;;;;;;25.40;45.40;;;;;;4996862;28;20008;-81
2022/07/17 05:58:47;;;;;;;;;;;25.40;45.40;;;;;;4997331;28;20041;-82
2022/07/17 06:01:14;;;;;;;;;;;25.40;45.40;;;;;;4998104;28;19968;-81
2022/07/17 06:03:40;;;;;;;;;;;25.40;45.40;;;;;;4999494;28;19981;-83
2022/07/17 06:06:08;;;;;;;;;;;25.40;45.50;;;;;;4998951;28;20004;-83
2022/07/17 06:08:35;;;;;;;;;;;25.40;45.50;;;;;;4999188;28;19926;-86
2022/07/17 06:11:02;;;;;;;;;;;25.40;45.40;;;;;;4999282;28;20012;-84
2022/07/17 06:13:28;;;;;;;;;;;25.40;45.40;;;;;;5000930;28;20008;-84
2022/07/17 06:15:58;;;;;;;;;;;25.40;45.40;;;;;;5001407;28;19932;-84
2022/07/17 06:18:25;;;;;;;;;;;25.40;45.40;;;;;;5001280;28;19925;-84
2022/07/17 06:20:52;;;;;;;;;;;25.40;45.40;;;;;;5002446;28;20016;-84
2022/07/17 06:23:20;;;;;;;;;;;25.40;45.40;;;;;;5000488;28;19984;-87
2022/07/17 06:25:46;;;;;;;;;;;25.40;45.50;;;;;;4999034;28;20017;-86
2022/07/17 06:28:13;;;;;;;;;;;25.40;45.40;;;;;;5000779;28;19985;-85
2022/07/17 06:30:40;;;;;;;;;;;25.30;45.40;;;;;;5002051;28;20009;-85
2022/07/17 06:33:06;;;;;;;;;;;25.40;45.40;;;;;;5000347;28;20012;-80
2022/07/17 06:35:34;;;;;;;;;;;25.40;45.40;;;;;;4999742;28;20128;-79
2022/07/17 06:38:01;;;;;;;;;;;25.30;45.30;;;;;;4999814;28;20052;-79
2022/07/17 06:40:29;;;;;;;;;;;25.30;45.30;;;;;;5000546;28;19926;-79
2022/07/17 06:42:55;;;;;;;;;;;25.30;45.30;;;;;;5000589;28;20355;-80
2022/07/17 06:45:22;;;;;;;;;;;25.30;45.30;;;;;;5000199;28;19961;-80
2022/07/17 06:47:49;;;;;;;;;;;25.30;45.20;;;;;;5000091;28;19933;-80
2022/07/17 06:50:15;;;;;;;;;;;25.30;45.20;;;;;;5000031;28;20341;-80
2022/07/17 06:52:42;;;;;;;;;;;25.30;45.20;;;;;;5000063;28;20017;-80
2022/07/17 06:55:09;;;;;;;;;;;25.30;45.20;;;;;;5000104;28;19933;-80
2022/07/17 06:57:37;;;;;;;;;;;25.30;45.20;;;;;;5000153;28;19989;-80
2022/07/17 07:00:04;;;;;;;;;;;25.30;45.80;;;;;;5000394;28;20001;-80
2022/07/17 07:02:31;;;;;;;;;;;25.30;45.10;;;;;;5000886;28;19925;-80
2022/07/17 07:04:57;;;;;;;;;;;25.30;45.10;;;;;;4999858;28;20008;-80
2022/07/17 07:07:24;;;;;;;;;;;25.30;45.30;;;;;;5000487;28;19961;-82
2022/07/17 07:09:51;;;;;;;;;;;25.30;45.00;;;;;;4999847;28;20025;-82
2022/07/17 07:12:18;;;;;;;;;;;25.30;45.00;;;;;;4998118;28;19929;-81
2022/07/17 07:14:46;;;;;;;;;;;25.30;45.00;;;;;;4999116;28;19926;-81
2022/07/17 07:17:13;;;;;;;;;;;25.30;44.90;;;;;;4998299;28;20024;-83
2022/07/17 07:19:39;;;;;;;;;;;25.30;44.80;;;;;;5003967;28;19986;-81
2022/07/17 07:22:06;;;;;;;;;;;25.30;44.80;;;;;;5012592;28;20003;-81
2022/07/17 07:24:33;;;;;;;;;;;25.30;44.70;;;;;;5013289;28;19926;-81
2022/07/17 07:27:00;;;;;;;;;;;25.30;44.60;;;;;;5008982;28;19949;-80
2022/07/17 07:29:26;;;;;;;;;;;25.30;44.60;;;;;;5006871;28;19926;-80
2022/07/17 07:31:55;;;;;;;;;;;25.30;44.50;;;;;;5013889;28;19933;-80
2022/07/17 07:34:22;;;;;;;;;;;25.30;44.50;;;;;;5012854;28;19929;-81
2022/07/17 07:36:49;;;;;;;;;;;25.30;44.40;;;;;;5014383;28;19933;-81
2022/07/17 07:39:16;;;;;;;;;;;25.30;45.00;;;;;;5012156;28;20050;-81
2022/07/17 07:41:42;;;;;;;;;;;25.30;44.30;;;;;;5010648;28;19930;-80
2022/07/17 07:44:09;;;;;;;;;;;25.30;44.30;;;;;;5008193;28;19976;-81
2022/07/17 07:46:35;;;;;;;;;;;25.30;44.20;;;;;;5004128;28;20017;-80
2022/07/17 07:49:05;;;;;;;;;;;25.30;44.20;;;;;;5003054;28;19964;-80
2022/07/17 07:51:32;;;;;;;;;;;25.30;44.20;;;;;;5004071;28;19957;-81
2022/07/17 07:53:59;;;;;;;;;;;25.30;44.10;;;;;;5004034;28;19926;-81
2022/07/17 07:56:26;;;;;;;;;;;25.30;43.80;;;;;;5003402;28;19976;-81
2022/07/17 07:58:53;;;;;;;;;;;25.20;43.60;;;;;;4999489;28;20309;-81
2022/07/17 08:01:20;;;;;;;;;;;25.20;43.40;;;;;;4998822;28;19925;-81
2022/07/17 08:03:46;;;;;;;;;;;25.10;43.00;;;;;;4998477;28;19933;-81
2022/07/17 08:06:15;;;;;;;;;;;25.10;42.70;;;;;;4999469;28;20016;-82
2022/07/17 08:08:41;;;;;;;;;;;25.00;42.40;;;;;;4997959;28;19926;-81
2022/07/17 08:11:08;;;;;;;;;;;25.00;42.00;;;;;;4997886;28;20016;-81
2022/07/17 08:13:35;;;;;;;;;;;24.90;41.60;;;;;;4997449;28;20020;-82
2022/07/17 08:16:01;;;;;;;;;;;24.90;41.30;;;;;;4997670;28;20020;-83
2022/07/17 08:18:28;;;;;;;;;;;24.90;41.20;;;;;;4997268;28;19933;-82
2022/07/17 08:20:55;;;;;;;;;;;24.90;41.20;;;;;;4997189;28;19930;-82
2022/07/17 08:23:23;;;;;;;;;;;25.00;41.30;;;;;;4996982;28;19972;-82
2022/07/17 08:25:50;;;;;;;;;;;25.00;41.10;;;;;;4997192;28;20020;-81
2022/07/17 08:28:16;;;;;;;;;;;25.00;40.90;;;;;;4996951;28;20016;-81
2022/07/17 08:30:43;;;;;;;;;;;25.00;40.70;;;;;;4997879;28;20013;-83
2022/07/17 08:33:10;;;;;;;;;;;25.00;40.50;;;;;;4998083;28;20016;-85
2022/07/17 08:35:37;;;;;;;;;;;25.00;40.30;;;;;;4997932;28;19991;-85
2022/07/17 08:38:04;;;;;;;;;;;25.00;40.10;;;;;;4997693;28;20036;-82
2022/07/17 08:40:33;;;;;;;;;;;25.00;39.90;;;;;;4997555;28;20001;-82
2022/07/17 08:43:00;;;;;;;;;;;25.10;39.80;;;;;;4998039;28;19997;-83
2022/07/17 08:45:27;;;;;;;;;;;25.10;39.60;;;;;;4998389;28;20016;-83
2022/07/17 08:47:55;;;;;;;;;;;25.10;39.40;;;;;;4999518;28;19926;-84
2022/07/17 08:50:22;;;;;;;;;;;25.10;39.30;;;;;;4999539;28;20028;-83
2022/07/17 08:52:49;;;;;;;;;;;25.10;39.10;;;;;;5000148;28;20024;-83
2022/07/17 08:55:16;;;;;;;;;;;25.10;38.90;;;;;;4999815;28;20016;-82
2022/07/17 08:57:45;;;;;;;;;;;25.10;38.70;;;;;;4999573;28;20357;-82
2022/07/17 09:00:12;;;;;;;;;;;25.10;38.50;;;;;;4998573;28;19925;-82
2022/07/17 09:02:39;;;;;;;;;;;25.00;38.30;;;;;;4998431;28;20020;-82
2022/07/17 09:05:06;;;;;;;;;;;25.10;38.10;;;;;;4997552;28;20024;-82
2022/07/17 09:07:33;;;;;;;;;;;25.00;37.90;;;;;;4997879;28;20044;-82
2022/07/17 09:10:00;;;;;;;;;;;25.00;37.80;;;;;;4998660;28;19961;-82
2022/07/17 09:12:27;;;;;;;;;;;25.00;37.60;;;;;;4998474;28;20341;-83
2022/07/17 09:14:56;;;;;;;;;;;25.10;37.50;;;;;;4997462;28;19926;-83
2022/07/17 09:17:26;;;;;;;;;;;25.10;37.30;;;;;;4998371;28;19932;-82
2022/07/17 09:19:53;;;;;;;;;;;25.10;37.10;;;;;;4997996;28;19980;-82
2022/07/17 09:22:22;;;;;;;;;;;25.10;36.90;;;;;;4997588;28;19957;-83
2022/07/17 09:24:49;;;;;;;;;;;25.10;36.80;;;;;;4997817;28;20020;-83
2022/07/17 09:27:18;;;;;;;;;;;25.00;36.50;;;;;;4996975;28;20028;-83
2022/07/17 09:29:56;;;;;;;;;;;25.00;36.20;;;;;;4998637;28;19925;-83
2022/07/17 09:32:24;;;;;;;;;;;25.00;36.20;;;;;;4998842;28;20357;-83
2022/07/17 09:34:51;;;;;;;;;;;25.00;36.20;;;;;;4999875;28;20428;-83
2022/07/17 09:37:18;;;;;;;;;;;25.00;36.20;;;;;;5002675;28;20036;-78
2022/07/17 09:39:45;;;;;;;;;;;25.00;36.00;;;;;;4999340;28;20012;-78
2022/07/17 09:42:22;;;;;;;;;;;25.00;35.80;;;;;;5000290;28;20385;-78
2022/07/17 09:44:54;;;;;;;;;;;25.10;35.70;;;;;;4999977;28;20348;-78
2022/07/17 09:47:21;;;;;;;;;;;25.10;35.50;;;;;;4999981;28;20024;-78
2022/07/17 09:49:49;;;;;;;;;;;25.10;35.40;;;;;;4999846;28;20465;-78
2022/07/17 09:52:16;;;;;;;;;;;25.10;35.30;;;;;;4999376;28;20383;-78
2022/07/17 09:54:45;;;;;;;;;;;25.10;35.20;;;;;;4999414;28;20283;-78
2022/07/17 09:57:12;;;;;;;;;;;25.10;35.00;;;;;;4999215;28;19926;-80
2022/07/17 09:59:39;;;;;;;;;;;25.10;34.90;;;;;;4999456;28;20025;-78
2022/07/17 10:02:06;;;;;;;;;;;25.20;34.90;;;;;;4998816;28;19925;-78
2022/07/17 10:04:34;;;;;;;;;;;25.20;34.80;;;;;;4998063;28;19926;-78
2022/07/17 10:07:02;;;;;;;;;;;25.20;34.70;;;;;;4998464;28;19949;-78
2022/07/17 10:09:29;;;;;;;;;;;25.20;34.70;;;;;;4999356;28;19926;-78
2022/07/17 10:11:56;;;;;;;;;;;25.20;34.50;;;;;;4998076;28;20008;-77
2022/07/17 10:14:23;;;;;;;;;;;25.20;34.50;;;;;;4999012;28;19926;-78
2022/07/17 10:16:50;;;;;;;;;;;25.20;34.40;;;;;;5000065;28;19972;-79
2022/07/17 10:19:18;;;;;;;;;;;25.20;34.30;;;;;;5000353;28;19930;-77
2022/07/17 10:21:52;;;;;;;;;;;25.20;34.20;;;;;;4999662;28;19926;-79
2022/07/17 10:24:21;;;;;;;;;;;25.20;34.10;;;;;;5001467;28;20314;-77
2022/07/17 10:26:49;;;;;;;;;;;25.20;34.00;;;;;;5006765;28;19949;-82
2022/07/17 10:29:29;;;;;;;;;;;25.30;34.00;;;;;;5007026;28;19926;-78
2022/07/17 10:31:56;;;;;;;;;;;25.30;34.00;;;;;;4998602;28;19941;-78
2022/07/17 10:34:36;;;;;;;;;;;25.30;33.90;;;;;;5003368;28;19926;-77
2022/07/17 10:37:03;;;;;;;;;;;25.30;33.90;;;;;;4998206;28;20289;-77
2022/07/17 10:39:31;;;;;;;;;;;25.30;33.80;;;;;;4996906;28;20383;-78
2022/07/17 10:41:59;;;;;;;;;;;25.30;33.80;;;;;;4997233;28;20037;-78
2022/07/17 10:44:27;;;;;;;;;;;25.30;33.70;;;;;;4997250;28;19925;-77
2022/07/17 10:46:53;;;;;;;;;;;25.30;33.70;;;;;;4997039;28;19926;-78
2022/07/17 10:49:20;;;;;;;;;;;25.40;33.70;;;;;;4996421;28;20448;-77
2022/07/17 10:51:47;;;;;;;;;;;25.40;33.70;;;;;;4997032;28;19929;-77
2022/07/17 10:54:14;;;;;;;;;;;25.40;33.70;;;;;;4997010;28;20388;-77
2022/07/17 10:56:42;;;;;;;;;;;25.40;33.60;;;;;;4996897;28;19932;-77
2022/07/17 10:59:09;;;;;;;;;;;25.40;33.60;;;;;;4996826;28;20349;-77
2022/07/17 11:01:35;;;;;;;;;;;25.40;34.10;;;;;;4996724;28;20373;-77
2022/07/17 11:04:02;;;;;;;;;;;25.50;33.60;;;;;;4996497;28;20408;-77
2022/07/17 11:06:30;;;;;;;;;;;25.50;33.60;;;;;;4997332;28;19932;-77
2022/07/17 11:08:58;;;;;;;;;;;25.50;33.60;;;;;;4997253;28;19945;-76
2022/07/17 11:11:40;;;;;;;;;;;25.50;33.50;;;;;;4996749;28;19926;-77
2022/07/17 11:14:12;;;;;;;;;;;25.50;33.50;;;;;;4996694;28;20028;-77
2022/07/17 11:16:44;;;;;;;;;;;25.50;33.50;;;;;;4996557;28;20366;-77
2022/07/17 11:19:11;;;;;;;;;;;25.50;33.40;;;;;;4996626;28;20004;-77
2022/07/17 11:21:45;;;;;;;;;;;25.50;33.40;;;;;;4996938;28;19965;-77
2022/07/17 11:24:12;;;;;;;;;;;25.50;33.40;;;;;;4998200;28;19925;-79
2022/07/17 11:26:39;;;;;;;;;;;25.50;33.40;;;;;;4997238;28;19926;-78
2022/07/17 11:29:06;;;;;;;;;;;25.60;33.40;;;;;;4997146;28;20024;-78
2022/07/17 11:31:35;;;;;;;;;;;25.60;33.40;;;;;;4996868;28;19926;-78
2022/07/17 11:34:02;;;;;;;;;;;25.60;33.40;;;;;;4997063;28;19930;-78
2022/07/17 11:36:31;;;;;;;;;;;25.60;33.30;;;;;;4996674;28;20100;-78
2022/07/17 11:38:58;;;;;;;;;;;25.60;33.30;;;;;;4996521;28;19961;-78
2022/07/17 11:41:31;;;;;;;;;;;25.60;33.30;;;;;;4996231;28;19926;-78
2022/07/17 11:43:58;;;;;;;;;;;25.60;33.20;;;;;;4996541;28;19936;-76
2022/07/17 11:46:24;;;;;;;;;;;25.60;33.20;;;;;;4996179;28;19947;-77
2022/07/17 11:48:53;;;;;;;;;;;25.60;33.20;;;;;;4996054;28;19926;-77
2022/07/17 11:51:19;;;;;;;;;;;25.60;33.20;;;;;;4998093;28;19985;-82
2022/07/17 11:53:47;;;;;;;;;;;25.60;33.10;;;;;;4999757;28;19997;-79
2022/07/17 11:56:20;;;;;;;;;;;25.60;33.10;;;;;;4999770;28;19926;-78
2022/07/17 11:58:48;;;;;;;;;;;25.60;33.10;;;;;;4999344;28;20432;-78
2022/07/17 12:01:15;;;;;;;;;;;25.60;33.00;;;;;;5000125;28;20008;-79
2022/07/17 12:03:42;;;;;;;;;;;25.60;32.90;;;;;;4999096;28;20020;-78
2022/07/17 12:06:10;;;;;;;;;;;25.60;32.90;;;;;;5000062;28;19973;-78
2022/07/17 12:08:37;;;;;;;;;;;25.60;32.80;;;;;;4997824;28;20356;-84
2022/07/17 12:11:05;;;;;;;;;;;25.60;32.80;;;;;;4997830;28;20004;-79
2022/07/17 12:13:38;;;;;;;;;;;25.60;32.70;;;;;;4997499;28;19969;-79
2022/07/17 12:16:18;;;;;;;;;;;25.60;32.60;;;;;;4998643;28;20004;-81
2022/07/17 12:18:55;;;;;;;;;;;25.60;32.60;;;;;;4997525;28;20009;-78
2022/07/17 12:21:23;;;;;;;;;;;25.50;32.40;;;;;;4997426;28;20441;-79
2022/07/17 12:23:58;;;;;;;;;;;25.60;32.40;;;;;;4997701;28;20024;-78
2022/07/17 12:26:24;;;;;;;;;;;25.60;32.40;;;;;;4997330;28;19930;-78
2022/07/17 12:28:51;;;;;;;;;;;25.60;32.30;;;;;;4997937;28;19926;-79
2022/07/17 12:31:19;;;;;;;;;;;25.60;32.20;;;;;;4997765;28;19984;-79
2022/07/17 12:33:46;;;;;;;;;;;25.60;32.20;;;;;;4997242;28;19929;-79
2022/07/17 12:36:13;;;;;;;;;;;25.60;32.10;;;;;;4998103;28;19926;-80
2022/07/17 12:38:43;;;;;;;;;;;25.60;32.00;;;;;;4997374;28;20258;-79
2022/07/17 12:41:10;;;;;;;;;;;25.60;31.90;;;;;;4999024;28;20017;-79
2022/07/17 12:43:37;;;;;;;;;;;25.60;31.80;;;;;;4997905;28;19926;-77
2022/07/17 12:46:03;;;;;;;;;;;25.60;31.70;;;;;;4996186;28;19925;-77
2022/07/17 12:48:30;;;;;;;;;;;25.60;31.60;;;;;;4994666;28;19925;-77
2022/07/17 12:50:57;;;;;;;;;;;25.60;31.40;;;;;;4995002;28;20000;-77
2022/07/17 12:53:23;;;;;;;;;;;25.60;31.40;;;;;;4994572;28;19932;-77
2022/07/17 12:55:51;;;;;;;;;;;25.60;31.40;;;;;;4995762;28;19926;-79
2022/07/17 12:58:18;;;;;;;;;;;25.70;31.40;;;;;;4996896;28;20385;-79
2022/07/17 13:00:45;;;;;;;;;;;25.70;31.40;;;;;;4996881;28;19926;-79
2022/07/17 13:03:12;;;;;;;;;;;25.70;31.40;;;;;;4996209;28;20016;-81
2022/07/17 13:05:39;;;;;;;;;;;25.70;31.40;;;;;;4996102;28;20329;-80
2022/07/17 13:08:06;;;;;;;;;;;25.70;31.40;;;;;;4996275;28;19973;-80
2022/07/17 13:10:34;;;;;;;;;;;25.70;31.40;;;;;;4995746;28;19930;-80
2022/07/17 13:13:04;;;;;;;;;;;25.70;31.20;;;;;;4994983;28;19949;-80
2022/07/17 13:15:31;;;;;;;;;;;25.70;31.10;;;;;;4994910;28;20301;-79
2022/07/17 13:17:57;;;;;;;;;;;25.70;31.00;;;;;;4994334;28;20293;-80
2022/07/17 13:20:24;;;;;;;;;;;25.70;30.90;;;;;;4994770;28;20297;-80
2022/07/17 13:22:51;;;;;;;;;;;25.80;30.90;;;;;;4994932;28;19926;-79
2022/07/17 13:25:18;;;;;;;;;;;25.70;30.70;;;;;;4995012;28;19980;-79
2022/07/17 13:27:44;;;;;;;;;;;25.70;30.70;;;;;;4994784;28;19929;-80
2022/07/17 13:30:13;;;;;;;;;;;25.80;30.70;;;;;;4994916;28;19932;-80
2022/07/17 13:32:40;;;;;;;;;;;25.70;30.60;;;;;;4994425;28;19925;-78
2022/07/17 13:35:07;;;;;;;;;;;25.80;30.60;;;;;;4994454;28;19932;-79
2022/07/17 13:37:34;;;;;;;;;;;25.80;30.60;;;;;;4994380;28;20008;-78
2022/07/17 13:40:01;;;;;;;;;;;25.80;30.60;;;;;;4994186;28;20009;-78
2022/07/17 13:42:27;;;;;;;;;;;25.90;30.60;;;;;;4994507;28;20008;-78
2022/07/17 13:44:54;;;;;;;;;;;25.90;30.50;;;;;;4994613;28;20016;-78
2022/07/17 13:47:22;;;;;;;;;;;25.90;30.50;;;;;;4995275;28;20009;-78
2022/07/17 13:49:49;;;;;;;;;;;25.90;30.50;;;;;;4995799;28;20087;-78
2022/07/17 13:52:15;;;;;;;;;;;25.90;30.50;;;;;;4998610;28;20336;-78
2022/07/17 13:54:42;;;;;;;;;;;25.90;30.40;;;;;;4995491;28;20012;-78
2022/07/17 13:57:09;;;;;;;;;;;25.90;30.40;;;;;;4994591;28;19939;-78
2022/07/17 13:59:36;;;;;;;;;;;25.90;30.40;;;;;;4994765;28;19984;-78
2022/07/17 14:02:02;;;;;;;;;;;25.90;30.40;;;;;;4994716;28;19961;-78
2022/07/17 14:04:30;;;;;;;;;;;25.90;30.40;;;;;;4994442;28;20452;-78
2022/07/17 14:06:57;;;;;;;;;;;25.90;30.30;;;;;;4994960;28;20024;-78
2022/07/17 14:09:24;;;;;;;;;;;25.90;30.20;;;;;;4993771;28;19926;-78
2022/07/17 14:11:51;;;;;;;;;;;25.90;30.20;;;;;;4993870;28;19973;-78
2022/07/17 14:14:18;;;;;;;;;;;25.90;30.20;;;;;;4994531;28;19926;-78
2022/07/17 14:16:44;;;;;;;;;;;25.90;30.20;;;;;;4994774;28;19961;-78
2022/07/17 14:19:11;;;;;;;;;;;25.90;30.10;;;;;;4994922;28;20016;-78
2022/07/17 14:21:39;;;;;;;;;;;25.90;30.10;;;;;;4995757;28;20024;-79
2022/07/17 14:24:06;;;;;;;;;;;25.90;30.10;;;;;;5001810;28;20025;-81
2022/07/17 14:26:33;;;;;;;;;;;25.90;30.10;;;;;;5002334;28;20333;-79
2022/07/17 14:29:00;;;;;;;;;;;25.90;30.00;;;;;;5002006;28;20037;-82
2022/07/17 14:31:27;;;;;;;;;;;25.90;30.60;;;;;;5001916;28;20016;-83
2022/07/17 14:33:53;;;;;;;;;;;25.90;30.00;;;;;;5001183;28;20016;-79
2022/07/17 16:12:12;;;;;;;;;;;25.80;29.10;;;;;;5763941;23;20395;-79
2022/07/17 16:14:39;;;;;;;;;;;25.80;29.10;;;;;;5001503;28;20021;-78
2022/07/17 16:17:06;;;;;;;;;;;25.80;29.10;;;;;;5000692;28;20020;-75
2022/07/17 16:19:33;;;;;;;;;;;25.80;29.10;;;;;;5000975;28;19969;-77
2022/07/17 16:22:00;;;;;;;;;;;25.80;29.10;;;;;;5001367;28;19965;-77
2022/07/17 16:24:27;;;;;;;;;;;25.80;29.10;;;;;;4999808;28;19926;-77
2022/07/17 16:26:54;;;;;;;;;;;25.80;29.10;;;;;;5000332;28;19926;-77
2022/07/17 16:29:22;;;;;;;;;;;25.80;29.10;;;;;;5001495;28;19932;-78
2022/07/17 16:31:49;;;;;;;;;;;25.80;29.10;;;;;;5001607;28;19957;-78
2022/07/17 16:34:16;;;;;;;;;;;25.80;29.10;;;;;;4999421;28;19930;-76
2022/07/17 16:36:43;;;;;;;;;;;25.80;29.00;;;;;;5000127;28;20340;-76
2022/07/17 16:39:10;;;;;;;;;;;25.80;29.00;;;;;;5002294;28;19926;-78
2022/07/17 16:41:38;;;;;;;;;;;25.80;29.00;;;;;;5002212;28;19926;-79
2022/07/17 16:44:05;;;;;;;;;;;25.80;29.00;;;;;;5003958;28;19926;-79
2022/07/17 16:46:34;;;;;;;;;;;25.80;29.00;;;;;;5004361;28;19932;-79
2022/07/17 16:49:01;;;;;;;;;;;25.80;29.00;;;;;;5000869;28;19926;-81
2022/07/17 16:51:28;;;;;;;;;;;25.80;29.00;;;;;;5002599;28;19969;-79
2022/07/17 16:53:55;;;;;;;;;;;25.80;29.00;;;;;;5002459;28;19968;-79
2022/07/17 16:56:22;;;;;;;;;;;25.80;29.00;;;;;;5002342;28;19984;-79
2022/07/17 16:58:49;;;;;;;;;;;25.80;29.00;;;;;;5001651;28;19926;-79
2022/07/17 17:01:16;;;;;;;;;;;25.80;29.00;;;;;;5000995;28;19939;-78
2022/07/17 17:03:47;;;;;;;;;;;25.80;29.00;;;;;;5000723;28;19925;-79
2022/07/17 17:06:13;;;;;;;;;;;25.80;28.90;;;;;;4995664;28;19926;-78
2022/07/17 17:08:40;;;;;;;;;;;25.80;28.90;;;;;;4995156;28;19932;-78
2022/07/17 17:11:07;;;;;;;;;;;25.80;28.90;;;;;;4995328;28;20289;-78
2022/07/17 17:13:33;;;;;;;;;;;25.80;28.90;;;;;;4995377;28;19949;-78
2022/07/17 17:16:00;;;;;;;;;;;25.80;28.90;;;;;;4995815;28;19925;-78
2022/07/17 17:18:27;;;;;;;;;;;25.80;28.90;;;;;;4995626;28;19932;-78
2022/07/17 17:20:55;;;;;;;;;;;25.80;28.90;;;;;;4995723;28;20017;-78
2022/07/17 17:23:22;;;;;;;;;;;25.80;28.90;;;;;;4996606;28;20021;-77
2022/07/17 17:25:49;;;;;;;;;;;25.80;28.90;;;;;;4996559;28;19926;-76
2022/07/17 17:28:16;;;;;;;;;;;25.80;28.90;;;;;;4996153;28;19968;-77
2022/07/17 17:30:42;;;;;;;;;;;25.80;28.80;;;;;;4996094;28;20364;-80
2022/07/17 17:33:09;;;;;;;;;;;25.80;28.80;;;;;;4997378;28;19973;-81
2022/07/17 17:35:36;;;;;;;;;;;25.80;28.80;;;;;;4999165;28;19969;-79
2022/07/17 17:38:04;;;;;;;;;;;25.80;28.80;;;;;;4997071;28;19925;-78
2022/07/17 17:40:30;;;;;;;;;;;25.70;28.70;;;;;;4997657;28;20008;-79
2022/07/17 17:42:57;;;;;;;;;;;25.70;28.70;;;;;;4998241;28;20008;-80
2022/07/17 17:45:24;;;;;;;;;;;25.70;28.60;;;;;;5005983;28;19925;-80
2022/07/17 17:47:51;;;;;;;;;;;25.70;28.60;;;;;;5006128;28;19965;-80
2022/07/17 17:50:17;;;;;;;;;;;25.70;28.50;;;;;;5005045;28;20028;-80
2022/07/17 17:52:44;;;;;;;;;;;25.70;28.50;;;;;;5003148;28;19932;-83
2022/07/17 17:55:13;;;;;;;;;;;25.70;28.50;;;;;;5000238;28;19926;-80
2022/07/17 17:57:39;;;;;;;;;;;25.70;28.40;;;;;;5008338;28;19997;-83
2022/07/17 18:00:07;;;;;;;;;;;25.70;28.40;;;;;;5010832;28;19926;-83
2022/07/17 18:02:34;;;;;;;;;;;25.70;28.40;;;;;;5010601;28;19925;-83
2022/07/17 18:05:01;;;;;;;;;;;25.70;28.40;;;;;;5010057;28;19986;-83
2022/07/17 18:07:28;;;;;;;;;;;25.70;28.30;;;;;;5008727;28;20372;-83
2022/07/17 18:09:55;;;;;;;;;;;25.80;28.30;;;;;;5008372;28;19926;-83
2022/07/17 18:12:23;;;;;;;;;;;25.70;28.30;;;;;;5010113;28;19926;-83
2022/07/17 18:14:50;;;;;;;;;;;25.70;28.20;;;;;;5009760;28;19973;-83
2022/07/17 18:17:16;;;;;;;;;;;25.70;28.20;;;;;;5008978;28;19973;-82
2022/07/17 18:19:43;;;;;;;;;;;25.70;28.10;;;;;;5000322;28;19973;-85
2022/07/17 18:22:10;;;;;;;;;;;25.70;28.10;;;;;;4998159;28;19965;-86
2022/07/17 18:24:37;;;;;;;;;;;25.70;28.10;;;;;;4998317;28;19936;-86
2022/07/17 18:27:04;;;;;;;;;;;25.70;28.00;;;;;;4998860;28;19988;-86
2022/07/17 18:29:32;;;;;;;;;;;25.70;28.00;;;;;;5004935;28;19969;-83
2022/07/17 18:31:59;;;;;;;;;;;25.70;28.00;;;;;;5007640;28;20008;-81
2022/07/17 18:34:25;;;;;;;;;;;25.70;27.90;;;;;;5009518;28;19926;-83
2022/07/17 18:36:52;;;;;;;;;;;25.70;27.90;;;;;;5004771;28;19981;-82
2022/07/17 18:39:19;;;;;;;;;;;25.70;27.90;;;;;;5004192;28;20020;-82
2022/07/17 18:41:46;;;;;;;;;;;25.80;27.90;;;;;;5008522;28;19926;-83
2022/07/17 18:44:12;;;;;;;;;;;25.70;27.90;;;;;;5009071;28;19926;-82
2022/07/17 18:46:40;;;;;;;;;;;25.80;27.90;;;;;;5008830;28;19964;-81
2022/07/17 18:49:07;;;;;;;;;;;25.70;27.90;;;;;;5010478;28;19969;-79
2022/07/17 18:51:34;;;;;;;;;;;25.80;28.00;;;;;;5009520;28;19926;-79
2022/07/17 18:54:00;;;;;;;;;;;25.80;27.90;;;;;;5012078;28;20368;-80
2022/07/17 18:56:27;;;;;;;;;;;25.80;27.90;;;;;;5010212;28;20328;-79
2022/07/17 18:58:54;;;;;;;;;;;25.80;28.00;;;;;;5010305;28;19977;-80
2022/07/17 19:01:20;;;;;;;;;;;25.80;28.00;;;;;;5010211;28;19926;-81
2022/07/17 19:03:48;;;;;;;;;;;25.80;28.00;;;;;;5008362;28;20036;-80
2022/07/17 19:06:15;;;;;;;;;;;25.80;28.00;;;;;;5009461;28;19968;-80
2022/07/17 19:08:42;;;;;;;;;;;25.80;28.00;;;;;;5007046;28;20361;-80
2022/07/17 19:11:10;;;;;;;;;;;25.90;28.10;;;;;;5007436;28;20333;-81
2022/07/17 19:13:36;;;;;;;;;;;25.90;28.10;;;;;;5006233;28;20356;-81
2022/07/17 19:16:03;;;;;;;;;;;25.90;28.10;;;;;;5005463;28;19949;-81
2022/07/17 19:18:30;;;;;;;;;;;25.90;28.10;;;;;;5006932;28;20297;-81
2022/07/17 19:20:59;;;;;;;;;;;25.90;28.20;;;;;;5008081;28;20428;-79
2022/07/17 19:23:26;;;;;;;;;;;25.90;28.20;;;;;;5007685;28;19926;-80
2022/07/17 19:25:53;;;;;;;;;;;25.90;28.20;;;;;;5005773;28;20017;-80
2022/07/17 19:28:20;;;;;;;;;;;25.90;28.20;;;;;;5004975;28;20293;-79
2022/07/17 19:30:47;;;;;;;;;;;25.90;28.30;;;;;;5006084;28;20009;-79
2022/07/17 19:33:13;;;;;;;;;;;25.90;28.30;;;;;;5005633;28;20346;-80
2022/07/17 19:35:40;;;;;;;;;;;25.90;28.30;;;;;;5003594;28;20016;-80
2022/07/17 19:38:11;;;;;;;;;;;25.90;28.40;;;;;;5003416;28;19976;-80
2022/07/17 19:40:37;;;;;;;;;;;25.90;28.40;;;;;;5003428;28;19929;-80
2022/07/17 19:43:04;;;;;;;;;;;25.90;28.50;;;;;;5004556;28;19982;-80
2022/07/17 19:45:31;;;;;;;;;;;25.90;28.50;;;;;;5004119;28;19925;-80
2022/07/17 19:47:57;;;;;;;;;;;25.90;28.50;;;;;;5004626;28;20024;-81
2022/07/17 19:50:24;;;;;;;;;;;25.90;28.60;;;;;;5001991;28;19973;-79
2022/07/17 19:52:51;;;;;;;;;;;25.90;28.60;;;;;;4998628;28;20013;-77
2022/07/17 19:55:19;;;;;;;;;;;25.90;28.60;;;;;;4996014;28;20021;-76
2022/07/17 19:57:46;;;;;;;;;;;25.90;28.70;;;;;;4995898;28;20304;-77
2022/07/17 20:00:13;;;;;;;;;;;25.90;28.70;;;;;;4996241;28;20028;-74
2022/07/17 20:02:40;;;;;;;;;;;25.90;28.70;;;;;;4995592;28;19925;-74
2022/07/17 20:05:07;;;;;;;;;;;25.90;28.80;;;;;;5015231;23;19957;-79
2022/07/17 20:07:33;;;;;;;;;;;25.90;28.80;;;;;;5003571;28;19988;-79
2022/07/17 20:10:00;;;;;;;;;;;25.90;28.80;;;;;;5002611;28;19972;-80
2022/07/17 20:12:28;;;;;;;;;;;25.90;28.90;;;;;;5003881;28;19989;-78
2022/07/17 20:14:55;;;;;;;;;;;25.90;29.00;;;;;;5002213;28;20021;-79
2022/07/17 20:17:22;;;;;;;;;;;25.90;29.00;;;;;;4999434;28;20265;-78
2022/07/17 20:19:48;;;;;;;;;;;25.90;29.00;;;;;;4999551;28;19996;-79
2022/07/17 20:22:15;;;;;;;;;;;25.90;29.00;;;;;;4997886;28;20329;-79
2022/07/17 20:24:53;;;;;;;;;;;25.90;29.10;;;;;;5002488;28;20266;-79
2022/07/17 20:27:20;;;;;;;;;;;25.90;29.10;;;;;;4998033;28;20431;-78
2022/07/17 20:29:48;;;;;;;;;;;25.90;29.20;;;;;;4997954;28;20012;-79